Cone, Michigan
Current Conditions -  °F | °C
As of 8:53 PM on Wednesday 26 Nov 2014 (Local Time) from KARB Reporting Station
Overcast Overcast  
Wind Chill: 23°   Ceiling: 3900
Heat Index: 31°   Visibility: 10mi
Dew Point: 23°   Wind: 8mph
Humidity: 72%   Direction: 10°N
Pressure: 30.07"   Gusts: NA
Location:  42.0828°N, 83.683°W
Report Text: KARB 270153Z AUTO 01007KT 10SM OVC039 M01/M05 A3007 RMK AO2 SLP192 T10061050
Loading
Personal Weather Stations






























Interactive Weather Map New forecast layout! Learn more

10-Day Weather Forecast

Advertisements
Track Severe Weather on mobile